Time;durP1;ratioP1;P1;durP2;ratioP2;P2;SDS_P1;SDS_P2;PMS_P1;PMS_P2;Temp;Humidity;BMP_temperature;BMP_pressure;BME280_temperature;BME280_humidity;BME280_pressure;Samples;Min_cycle;Max_cycle;Signal;HPM_P1;HPM_P2
2023/01/19 00:00:45;;;;;;;16.63;7.55;;;;;;;2.98;100.00;100151.56;5022780;28;20048;-73
2023/01/19 00:03:14;;;;;;;21.52;8.52;;;;;;;3.00;100.00;100157.66;5020351;28;20053;-74
2023/01/19 00:05:42;;;;;;;19.67;8.95;;;;;;;2.98;100.00;100148.84;5025098;28;20040;-73
2023/01/19 00:08:13;;;;;;;18.52;7.82;;;;;;;2.97;100.00;100174.22;5019463;28;20056;-73
2023/01/19 00:10:40;;;;;;;17.58;7.78;;;;;;;2.88;100.00;100194.16;5024182;28;20036;-73
2023/01/19 00:13:06;;;;;;;8.65;4.60;;;;;;;2.84;100.00;100200.91;5024188;28;20029;-74
2023/01/19 00:15:31;;;;;;;6.82;2.67;;;;;;;2.76;100.00;100190.03;5023818;28;20051;-73
2023/01/19 00:17:57;;;;;;;8.13;2.83;;;;;;;2.72;100.00;100186.81;5023773;28;20445;-72
2023/01/19 00:20:22;;;;;;;11.18;4.15;;;;;;;2.76;100.00;100181.94;5016186;28;20029;-72
2023/01/19 00:22:49;;;;;;;7.70;3.50;;;;;;;2.81;100.00;100190.41;5021412;28;20030;-72
2023/01/19 00:25:16;;;;;;;14.23;2.85;;;;;;;2.89;100.00;100176.91;5021529;28;20065;-72
2023/01/19 00:27:48;;;;;;;8.00;2.38;;;;;;;2.89;100.00;100185.03;5022416;28;20033;-73
2023/01/19 00:30:17;;;;;;;7.47;2.55;;;;;;;2.95;100.00;100181.66;5022412;28;20018;-73
2023/01/19 00:32:42;;;;;;;5.20;2.03;;;;;;;2.87;100.00;100160.00;5028381;28;20048;-72
2023/01/19 00:35:08;;;;;;;7.80;2.80;;;;;;;2.91;100.00;100166.78;5025001;28;20038;-72
2023/01/19 00:37:33;;;;;;;6.35;2.33;;;;;;;2.90;100.00;100179.44;5027236;28;20029;-73
2023/01/19 00:39:59;;;;;;;10.60;2.72;;;;;;;2.95;100.00;100176.25;5018382;28;20040;-73
2023/01/19 00:42:39;;;;;;;7.90;1.92;;;;;;;3.04;100.00;100180.69;5020526;28;20070;-73
2023/01/19 00:45:07;;;;;;;5.40;1.65;;;;;;;2.99;100.00;100173.03;5018604;28;20060;-74
2023/01/19 00:47:33;;;;;;;10.32;2.00;;;;;;;3.02;100.00;100186.25;5025648;28;20107;-73
2023/01/19 00:49:58;;;;;;;2.50;1.58;;;;;;;2.99;100.00;100188.44;5018348;28;20056;-73
2023/01/19 00:52:23;;;;;;;4.18;1.48;;;;;;;2.88;100.00;100199.56;5023435;28;20440;-74
2023/01/19 00:54:49;;;;;;;1.17;1.05;;;;;;;2.85;100.00;100208.00;5019471;28;20028;-72
2023/01/19 00:57:15;;;;;;;4.43;1.15;;;;;;;2.73;100.00;100201.19;5007020;28;20116;-72
2023/01/19 00:59:40;;;;;;;0.98;0.80;;;;;;;2.72;100.00;100199.50;5018184;28;20091;-73
2023/01/19 01:02:06;;;;;;;1.33;1.00;;;;;;;2.71;100.00;100197.78;5022784;28;20129;-73
2023/01/19 01:04:31;;;;;;;7.60;1.42;;;;;;;2.76;100.00;100203.56;5025229;28;20030;-73
2023/01/19 01:06:57;;;;;;;5.85;1.02;;;;;;;2.75;100.00;100199.16;5022230;28;20511;-73
2023/01/19 01:09:23;;;;;;;3.15;1.23;;;;;;;2.74;100.00;100211.00;5015781;28;20072;-72
2023/01/19 01:11:48;;;;;;;2.35;1.08;;;;;;;2.74;100.00;100208.28;5021915;28;20026;-72
2023/01/19 01:14:14;;;;;;;1.17;0.90;;;;;;;2.77;100.00;100200.69;5021061;28;20044;-72
2023/01/19 01:16:39;;;;;;;2.55;0.73;;;;;;;2.79;100.00;100209.47;5017860;28;20033;-72
2023/01/19 01:19:05;;;;;;;4.05;1.65;;;;;;;2.82;100.00;100208.31;5023853;28;20048;-72
2023/01/19 01:21:33;;;;;;;4.70;1.05;;;;;;;2.83;100.00;100210.03;5018168;28;20032;-72
2023/01/19 01:23:58;;;;;;;8.30;1.80;;;;;;;2.84;100.00;100215.25;5020881;28;20021;-73
2023/01/19 01:26:24;;;;;;;4.43;0.93;;;;;;;2.90;100.00;100222.69;5019840;28;20096;-72
2023/01/19 01:28:49;;;;;;;3.72;1.83;;;;;;;2.91;100.00;100218.16;5022238;28;20029;-72
2023/01/19 01:31:15;;;;;;;9.32;1.30;;;;;;;2.94;100.00;100212.44;5052591;28;20049;-72
2023/01/19 01:33:40;;;;;;;2.25;1.00;;;;;;;3.00;100.00;100217.19;5021048;28;20033;-73
2023/01/19 01:36:06;;;;;;;5.80;1.13;;;;;;;2.98;100.00;100224.59;5016832;28;20022;-72
2023/01/19 01:38:31;;;;;;;8.20;1.05;;;;;;;2.98;100.00;100224.59;5024225;28;20060;-72
2023/01/19 01:40:57;;;;;;;5.47;1.27;;;;;;;3.04;100.00;100229.38;5018850;28;20025;-72
2023/01/19 01:43:22;;;;;;;7.13;1.50;;;;;;;3.00;100.00;100220.72;5018085;28;20536;-72
2023/01/19 01:45:47;;;;;;;10.40;1.58;;;;;;;2.99;100.00;100231.72;5017367;28;20033;-73
2023/01/19 01:48:21;;;;;;;4.05;1.42;;;;;;;3.00;100.00;100234.22;5020704;28;20029;-73
2023/01/19 01:53:46;;;;;;;8.70;1.85;;;;;;;3.01;100.00;100240.50;5017027;28;20538;-73
2023/01/19 01:56:16;;;;;;;10.50;2.30;;;;;;;3.00;100.00;100247.75;5012950;28;20030;-73
2023/01/19 01:58:42;;;;;;;16.30;2.10;;;;;;;3.00;100.00;100255.88;5022018;28;20400;-72
2023/01/19 02:03:54;;;;;;;11.95;2.25;;;;;;;2.97;100.00;100250.81;5023136;28;20053;-72
2023/01/19 02:06:21;;;;;;;6.45;1.48;;;;;;;2.88;100.00;100242.84;5016035;28;20053;-73
2023/01/19 02:14:25;;;;;;;3.47;0.93;;;;;;;2.75;100.00;100259.50;5020233;28;20041;-73
2023/01/19 02:16:50;;;;;;;2.92;1.00;;;;;;;2.79;100.00;100268.13;5017850;28;20030;-74
2023/01/19 02:19:23;;;;;;;6.40;1.15;;;;;;;2.78;100.00;100279.97;5022983;28;20025;-74
2023/01/19 02:21:55;;;;;;;1.98;0.90;;;;;;;2.75;100.00;100280.28;5018294;28;20424;-73
2023/01/19 02:24:21;;;;;;;4.68;1.20;;;;;;;2.71;100.00;100287.88;5021267;28;20099;-73
2023/01/19 02:26:47;;;;;;;1.27;0.75;;;;;;;2.75;100.00;100274.88;5019350;28;20060;-72
2023/01/19 02:29:19;;;;;;;7.90;1.07;;;;;;;2.72;100.00;100284.16;5018762;28;20485;-72
2023/01/19 02:31:44;;;;;;;4.40;1.10;;;;;;;2.70;100.00;100280.78;5017637;28;20099;-73
2023/01/19 02:34:14;;;;;;;4.30;1.10;;;;;;;2.68;100.00;100301.69;5025830;28;20437;-72
2023/01/19 02:36:51;;;;;;;4.22;0.98;;;;;;;2.62;100.00;100299.63;5017197;28;20025;-72
2023/01/19 02:39:21;;;;;;;8.30;1.30;;;;;;;2.58;100.00;100295.56;5020796;28;20064;-72
2023/01/19 02:41:54;;;;;;;5.88;0.90;;;;;;;2.47;100.00;100303.94;5017064;28;20034;-72
2023/01/19 02:44:22;;;;;;;4.97;1.10;;;;;;;2.37;100.00;100305.06;5024127;28;20416;-72
2023/01/19 02:46:47;;;;;;;7.07;1.10;;;;;;;2.21;100.00;100303.09;5018053;28;20104;-72
2023/01/19 02:49:13;;;;;;;11.93;2.03;;;;;;;2.12;100.00;100311.28;5024416;28;20117;-72
2023/01/19 02:51:42;;;;;;;4.20;1.45;;;;;;;2.03;100.00;100320.34;5022609;28;20108;-73
2023/01/19 02:54:23;;;;;;;4.80;0.90;;;;;;;1.96;100.00;100327.34;5023262;28;20323;-73
2023/01/19 02:57:10;;;;;;;3.05;0.93;;;;;;;1.95;100.00;100320.25;5022514;28;20065;-72
2023/01/19 03:00:09;;;;;;;2.42;1.00;;;;;;;1.88;100.00;100335.38;5023068;28;20065;-73
2023/01/19 03:02:51;;;;;;;2.15;0.90;;;;;;;1.73;100.00;100331.53;5023239;28;20102;-73
2023/01/19 03:05:25;;;;;;;7.43;1.10;;;;;;;1.57;100.00;100343.03;5018079;28;20478;-72
2023/01/19 03:08:06;;;;;;;7.10;1.13;;;;;;;1.50;100.00;100335.69;5018131;28;20478;-71
2023/01/19 03:10:54;;;;;;;5.43;1.10;;;;;;;1.42;100.00;100335.56;5018580;28;20021;-73
2023/01/19 03:13:40;;;;;;;4.27;0.73;;;;;;;1.36;100.00;100330.78;5038796;28;20033;-72
2023/01/19 03:16:19;;;;;;;3.55;1.00;;;;;;;1.37;100.00;100346.84;5026228;28;20037;-72
2023/01/19 03:18:50;;;;;;;12.13;1.58;;;;;;;1.30;100.00;100342.19;5027397;28;20033;-71
2023/01/19 03:21:18;;;;;;;2.25;1.08;;;;;;;1.36;100.00;100350.53;5023581;28;20032;-71
2023/01/19 03:23:46;;;;;;;5.53;1.48;;;;;;;1.36;100.00;100349.69;5025319;28;20029;-72
2023/01/19 03:26:16;;;;;;;3.65;1.20;;;;;;;1.33;100.00;100345.44;5023379;28;20029;-73
2023/01/19 03:28:44;;;;;;;4.72;1.00;;;;;;;1.36;100.00;100334.34;5022302;28;20564;-73
2023/01/19 03:31:15;;;;;;;6.47;1.20;;;;;;;1.45;100.00;100338.00;5027383;28;20438;-72
2023/01/19 03:33:46;;;;;;;0.85;0.85;;;;;;;1.47;100.00;100333.28;5024745;28;20051;-72
2023/01/19 03:36:19;;;;;;;1.67;0.90;;;;;;;1.47;100.00;100327.88;5019913;28;20072;-72
2023/01/19 03:38:47;;;;;;;2.08;1.02;;;;;;;1.47;100.00;100322.47;5017108;28;20030;-73
2023/01/19 03:41:16;;;;;;;1.85;0.98;;;;;;;1.47;100.00;100331.44;5023410;28;20104;-72
2023/01/19 03:43:42;;;;;;;2.95;1.10;;;;;;;1.50;100.00;100332.97;5024986;28;20022;-72
2023/01/19 03:46:09;;;;;;;2.92;1.05;;;;;;;1.50;100.00;100324.88;5027233;28;20087;-73
2023/01/19 03:48:36;;;;;;;2.50;1.10;;;;;;;1.52;100.00;100314.78;5026968;28;20047;-73
2023/01/19 03:51:07;;;;;;;7.38;1.58;;;;;;;1.56;100.00;100303.50;5021339;28;20034;-73
2023/01/19 03:53:33;;;;;;;9.38;1.58;;;;;;;1.56;100.00;100302.69;5018675;28;20029;-74
2023/01/19 03:55:59;;;;;;;5.70;1.80;;;;;;;1.58;100.00;100306.06;5015975;28;20046;-73
2023/01/19 03:58:24;;;;;;;6.38;1.35;;;;;;;1.66;100.00;100311.56;5021978;28;20025;-74
2023/01/19 04:00:51;;;;;;;1.75;1.20;;;;;;;1.76;100.00;100315.03;5018707;28;20139;-74
2023/01/19 04:03:17;;;;;;;4.45;1.42;;;;;;;1.77;100.00;100320.25;5026561;28;20057;-74
2023/01/19 04:05:43;;;;;;;7.55;1.65;;;;;;;1.78;100.00;100323.81;5020638;28;20041;-74
2023/01/19 04:08:08;;;;;;;7.00;1.70;;;;;;;1.79;100.00;100336.31;5023081;28;20489;-74
2023/01/19 04:10:34;;;;;;;10.60;1.58;;;;;;;1.83;100.00;100340.41;5013579;28;20093;-75
2023/01/19 04:13:01;;;;;;;5.00;1.40;;;;;;;1.84;100.00;100345.66;5020183;28;20021;-73
2023/01/19 04:15:27;;;;;;;5.83;1.40;;;;;;;1.77;100.00;100333.75;5022461;28;20278;-74
2023/01/19 04:17:53;;;;;;;7.20;2.15;;;;;;;1.75;100.00;100334.91;5023268;28;20108;-74
2023/01/19 04:20:20;;;;;;;7.38;2.30;;;;;;;1.75;100.00;100326.81;5029806;28;20125;-74
2023/01/19 04:22:45;;;;;;;;;;;;;;;1.72;100.00;100335.22;5019440;28;20037;-74
2023/01/19 04:25:11;;;;;;;5.40;1.30;;;;;;;1.75;100.00;100348.41;5024439;28;20422;-74
2023/01/19 04:27:36;;;;;;;6.43;1.30;;;;;;;1.76;100.00;100344.72;5022255;28;20022;-74
2023/01/19 04:30:03;;;;;;;4.15;1.30;;;;;;;1.82;100.00;100347.63;5022741;28;20515;-74
2023/01/19 04:32:29;;;;;;;7.28;1.33;;;;;;;1.92;100.00;100348.41;5021893;28;20036;-74
2023/01/19 04:34:55;;;;;;;9.23;1.55;;;;;;;2.08;100.00;100353.13;5022892;28;20037;-74
2023/01/19 04:37:20;;;;;;;10.18;2.45;;;;;;;2.24;100.00;100358.66;5031322;28;20026;-75
2023/01/19 04:39:46;;;;;;;9.13;1.85;;;;;;;2.29;100.00;100356.31;5031983;28;20403;-74
2023/01/19 04:42:11;;;;;;;20.10;2.22;;;;;;;2.29;100.00;100345.50;5022288;28;20040;-74
2023/01/19 04:44:37;;;;;;;10.90;1.88;;;;;;;2.32;100.00;100356.88;5026497;28;20535;-74
2023/01/19 04:47:02;;;;;;;9.05;1.85;;;;;;;2.32;100.00;100359.59;5023172;28;20033;-74
2023/01/19 04:49:28;;;;;;;17.13;2.50;;;;;;;2.30;100.00;100358.03;5024290;28;20068;-74
2023/01/19 04:51:53;;;;;;;9.85;2.17;;;;;;;2.25;100.00;100349.56;5022069;28;20030;-74
2023/01/19 04:54:19;;;;;;;7.40;1.77;;;;;;;2.24;100.00;100353.28;5019004;28;20026;-74
2023/01/19 04:56:45;;;;;;;8.43;1.80;;;;;;;2.20;100.00;100354.56;5017955;28;20405;-75
2023/01/19 04:59:11;;;;;;;15.32;2.20;;;;;;;2.20;100.00;100362.69;5020537;28;20021;-74
2023/01/19 05:01:37;;;;;;;6.00;2.13;;;;;;;2.20;100.00;100355.41;5023945;28;20507;-74
2023/01/19 05:04:05;;;;;;;10.65;2.20;;;;;;;2.24;100.00;100361.38;5021003;28;20046;-74
2023/01/19 05:06:31;;;;;;;10.95;3.17;;;;;;;2.22;100.00;100361.53;5021321;28;20417;-74
2023/01/19 05:08:56;;;;;;;5.72;2.10;;;;;;;2.24;100.00;100359.50;5024185;28;20047;-74
2023/01/19 05:11:22;;;;;;;13.43;2.03;;;;;;;2.27;100.00;100358.34;5026288;28;20037;-74
2023/01/19 05:13:47;;;;;;;13.65;2.17;;;;;;;2.29;100.00;100373.38;5017245;28;20025;-74
2023/01/19 05:16:13;;;;;;;7.65;2.10;;;;;;;2.26;100.00;100367.44;5024206;28;20097;-74
2023/01/19 05:18:39;;;;;;;17.80;2.50;;;;;;;2.31;100.00;100375.94;5023622;28;20441;-74
2023/01/19 05:21:05;;;;;;;12.25;1.98;;;;;;;2.37;100.00;100372.59;5027309;28;20033;-74
2023/01/19 05:23:31;;;;;;;11.35;2.95;;;;;;;2.37;100.00;100369.91;5015910;28;20034;-74
2023/01/19 05:25:59;;;;;;;11.10;2.78;;;;;;;2.32;100.00;100383.91;5021648;28;20044;-74
2023/01/19 05:28:26;;;;;;;19.80;2.03;;;;;;;2.29;100.00;100377.94;5022924;28;20102;-74
2023/01/19 05:30:51;;;;;;;13.80;2.80;;;;;;;2.24;100.00;100377.59;5015932;28;20105;-74
2023/01/19 05:33:17;;;;;;;8.63;1.95;;;;;;;2.30;100.00;100382.34;5024273;28;20116;-74
2023/01/19 05:35:42;;;;;;;20.92;2.35;;;;;;;2.32;100.00;100377.63;5015390;28;20075;-74
2023/01/19 05:38:08;;;;;;;21.48;2.38;;;;;;;2.39;100.00;100374.16;5022159;28;20112;-74
2023/01/19 05:40:33;;;;;;;14.25;2.60;;;;;;;2.33;100.00;100380.19;5022749;28;20029;-74
2023/01/19 05:43:03;;;;;;;10.80;2.15;;;;;;;2.22;100.00;100376.88;5020531;28;20033;-75
2023/01/19 05:45:28;;;;;;;9.07;2.17;;;;;;;2.26;100.00;100383.66;5011711;28;20087;-74
2023/01/19 05:47:54;;;;;;;10.35;1.48;;;;;;;2.26;100.00;100383.66;5018517;28;20025;-75
2023/01/19 05:50:20;;;;;;;10.95;2.75;;;;;;;2.21;100.00;100375.19;5027460;28;20018;-75
2023/01/19 05:52:45;;;;;;;13.60;2.05;;;;;;;2.24;100.00;100382.97;5019511;28;20033;-74
2023/01/19 05:55:11;;;;;;;6.32;1.70;;;;;;;2.19;100.00;100382.59;5012189;28;20440;-75
2023/01/19 05:57:36;;;;;;;16.40;3.03;;;;;;;2.19;100.00;100379.91;5022447;28;20026;-76
2023/01/19 06:00:04;;;;;;;10.40;2.15;;;;;;;2.19;100.00;100390.69;5019460;28;20056;-74
2023/01/19 06:02:29;;;;;;;13.32;2.13;;;;;;;2.16;100.00;100382.91;5015939;28;20555;-75
2023/01/19 06:04:55;;;;;;;17.75;1.80;;;;;;;2.10;100.00;100388.91;5016720;28;20046;-75
2023/01/19 06:07:21;;;;;;;6.95;2.42;;;;;;;2.05;100.00;100385.84;5021000;28;20038;-75
2023/01/19 06:09:46;;;;;;;8.03;1.90;;;;;;;1.93;100.00;100387.06;5023946;28;20029;-75
2023/01/19 06:12:12;;;;;;;6.53;1.70;;;;;;;1.81;100.00;100388.28;5019639;28;20044;-75
2023/01/19 06:14:37;;;;;;;9.32;1.77;;;;;;;1.75;100.00;100403.25;5019545;28;20072;-74
2023/01/19 06:17:05;;;;;;;24.20;2.55;;;;;;;1.72;100.00;100403.53;5018672;28;20506;-74
2023/01/19 06:19:31;;;;;;;22.48;3.70;;;;;;;1.68;100.00;100412.09;5022233;28;20068;-75
2023/01/19 06:21:57;;;;;;;26.02;2.85;;;;;;;1.64;100.00;100410.72;5020852;28;20424;-75
2023/01/19 06:24:24;;;;;;;11.30;2.70;;;;;;;1.71;100.00;100404.56;5021659;28;20018;-75
2023/01/19 06:26:50;;;;;;;15.70;2.90;;;;;;;1.74;100.00;100419.59;5019820;28;20029;-75
2023/01/19 06:29:15;;;;;;;19.47;3.53;;;;;;;1.67;100.00;100418.50;5020520;28;20042;-75
2023/01/19 06:31:41;;;;;;;20.35;3.03;;;;;;;1.64;100.00;100416.97;5022832;28;20025;-75
2023/01/19 06:34:07;;;;;;;21.35;2.70;;;;;;;1.58;100.00;100422.09;5029972;28;20057;-75
2023/01/19 06:36:33;;;;;;;23.42;3.45;;;;;;;1.63;100.00;100423.38;5021453;28;20036;-75
2023/01/19 06:38:59;;;;;;;20.30;3.25;;;;;;;1.70;100.00;100421.75;5021028;28;20045;-75
2023/01/19 06:41:24;;;;;;;17.03;3.73;;;;;;;1.75;100.00;100429.38;5023067;28;20528;-75
2023/01/19 06:43:50;;;;;;;28.77;3.47;;;;;;;1.76;100.00;100431.94;5023779;28;20075;-75
2023/01/19 06:46:15;;;;;;;23.10;3.85;;;;;;;2.00;100.00;100436.75;5025841;28;20037;-75
2023/01/19 06:48:40;;;;;;;30.65;4.13;;;;;;;2.00;100.00;100428.66;5019336;28;20040;-75
2023/01/19 06:51:06;;;;;;;40.10;4.30;;;;;;;2.04;100.00;100441.69;5016913;28;20121;-75
2023/01/19 06:53:32;;;;;;;29.88;5.28;;;;;;;2.12;100.00;100438.22;5027488;28;20031;-75
2023/01/19 06:56:01;;;;;;;24.25;3.58;;;;;;;2.21;100.00;100450.81;5018016;28;20037;-75
2023/01/19 06:58:28;;;;;;;35.13;4.15;;;;;;;2.23;100.00;100459.59;5023190;28;20029;-76
2023/01/19 07:00:54;;;;;;;23.15;4.05;;;;;;;2.21;100.00;100465.19;5028890;28;20055;-75
2023/01/19 07:03:21;;;;;;;20.13;4.10;;;;;;;2.23;100.00;100470.41;5023546;28;20129;-75
2023/01/19 07:05:50;;;;;;;27.10;3.85;;;;;;;2.35;100.00;100471.91;5024980;28;20025;-75
2023/01/19 07:08:16;;;;;;;27.45;3.83;;;;;;;2.39;100.00;100482.25;5020034;28;20117;-75
2023/01/19 07:10:41;;;;;;;27.90;3.65;;;;;;;2.40;100.00;100472.28;5023869;28;20524;-75
2023/01/19 07:13:06;;;;;;;22.70;3.38;;;;;;;2.40;100.00;100483.09;5023692;28;20065;-75
2023/01/19 07:15:32;;;;;;;22.08;2.95;;;;;;;2.34;100.00;100487.25;5024877;28;20397;-75
2023/01/19 07:17:58;;;;;;;19.77;3.15;;;;;;;2.41;100.00;100482.09;5019413;28;20022;-75
2023/01/19 07:20:24;;;;;;;13.63;2.60;;;;;;;2.56;100.00;100494.06;5019893;28;20029;-75
2023/01/19 07:22:55;;;;;;;19.55;2.92;;;;;;;2.62;100.00;100485.31;5020450;28;20033;-75
2023/01/19 07:25:21;;;;;;;21.73;3.13;;;;;;;2.67;100.00;100494.66;5023509;28;20025;-75
2023/01/19 07:27:46;;;;;;;17.23;3.13;;;;;;;2.64;100.00;100488.72;5023198;28;20140;-75
2023/01/19 07:30:15;;;;;;;18.98;3.33;;;;;;;2.58;100.00;100506.38;5021297;28;20096;-75
2023/01/19 07:32:44;;;;;;;20.17;4.68;;;;;;;2.53;100.00;100507.88;5024163;28;20029;-75
2023/01/19 07:35:09;;;;;;;19.45;3.30;;;;;;;2.45;100.00;100508.66;5024641;28;20025;-75
2023/01/19 07:37:35;;;;;;;21.60;5.05;;;;;;;2.46;100.00;100513.03;5025904;28;20021;-75
2023/01/19 07:40:00;;;;;;;30.60;4.20;;;;;;;2.45;100.00;100507.78;5022747;28;20037;-75
2023/01/19 07:42:26;;;;;;;11.68;3.55;;;;;;;2.46;100.00;100523.03;5003678;28;20040;-75
2023/01/19 07:44:52;;;;;;;17.60;4.00;;;;;;;2.47;100.00;100527.41;5021270;28;20072;-75
2023/01/19 07:47:17;;;;;;;17.10;2.90;;;;;;;2.53;100.00;100519.53;5031294;28;20060;-76
2023/01/19 07:49:42;;;;;;;15.63;3.47;;;;;;;2.53;100.00;100527.66;5024211;28;20021;-75
2023/01/19 07:52:08;;;;;;;20.83;3.45;;;;;;;2.59;100.00;100531.56;5019332;28;20025;-75
2023/01/19 07:54:34;;;;;;;24.25;3.58;;;;;;;2.57;100.00;100533.59;5022993;28;20026;-75
2023/01/19 07:56:59;;;;;;;19.17;3.47;;;;;;;2.56;100.00;100534.59;5019792;28;20090;-75
2023/01/19 07:59:26;;;;;;;21.63;5.85;;;;;;;2.52;100.00;100538.63;5026475;28;20044;-75
2023/01/19 08:01:52;;;;;;;22.13;3.83;;;;;;;2.54;100.00;100536.59;5041628;28;20030;-75
2023/01/19 08:04:18;;;;;;;26.80;3.23;;;;;;;2.47;100.00;100538.22;5017607;28;20045;-75
2023/01/19 08:06:46;;;;;;;29.98;3.38;;;;;;;2.47;100.00;100538.22;5023560;28;20314;-75
2023/01/19 08:09:11;;;;;;;18.48;3.42;;;;;;;2.40;100.00;100550.66;5012606;28;20053;-75
2023/01/19 08:11:37;;;;;;;30.33;4.22;;;;;;;2.36;100.00;100555.50;5021379;28;20033;-75
2023/01/19 08:14:03;;;;;;;16.15;3.83;;;;;;;2.27;100.00;100551.03;5014185;28;20545;-75
2023/01/19 08:16:29;;;;;;;13.75;2.85;;;;;;;2.21;100.00;100558.88;5012346;28;20046;-75
2023/01/19 08:18:54;;;;;;;23.55;2.97;;;;;;;2.26;100.00;100567.38;5018352;28;20034;-75
2023/01/19 08:21:20;;;;;;;31.40;3.38;;;;;;;2.25;100.00;100568.38;5021016;28;20112;-75
2023/01/19 08:23:52;;;;;;;24.13;4.28;;;;;;;2.24;100.00;100559.41;5023230;28;20422;-75
2023/01/19 08:26:26;;;;;;;29.08;3.63;;;;;;;2.18;100.00;100569.97;5015322;28;20037;-75
2023/01/19 08:28:51;;;;;;;16.70;3.10;;;;;;;2.16;100.00;100583.66;5018197;28;20379;-75
2023/01/19 08:31:16;;;;;;;22.67;3.35;;;;;;;2.24;100.00;100582.91;5023067;28;20056;-75
2023/01/19 08:33:42;;;;;;;14.80;2.97;;;;;;;2.15;100.00;100583.78;5019261;28;20038;-75
2023/01/19 08:36:09;;;;;;;21.00;3.03;;;;;;;2.22;100.00;100583.03;5021305;28;20068;-75
2023/01/19 08:38:35;;;;;;;24.70;4.22;;;;;;;2.22;100.00;100587.59;5007850;28;20045;-76
2023/01/19 08:41:00;;;;;;;17.50;2.95;;;;;;;2.28;100.00;100589.69;5016746;28;20033;-75
2023/01/19 08:43:25;;;;;;;15.23;2.92;;;;;;;2.29;100.00;100585.97;5015700;28;20077;-74
2023/01/19 08:45:52;;;;;;;22.45;3.85;;;;;;;2.43;100.00;100597.16;5018012;28;20101;-74
2023/01/19 08:48:21;;;;;;;29.77;3.90;;;;;;;2.40;100.00;100591.19;5015287;28;20447;-76
2023/01/19 08:50:47;;;;;;;14.50;2.60;;;;;;;2.41;100.00;100598.28;5012329;28;20350;-75
2023/01/19 08:53:13;;;;;;;16.02;3.28;;;;;;;2.45;100.00;100596.97;5014820;28;20022;-75
2023/01/19 08:55:38;;;;;;;26.03;2.97;;;;;;;2.49;100.00;100595.66;5014325;28;20026;-75
2023/01/19 08:58:04;;;;;;;20.75;2.95;;;;;;;2.50;100.00;100602.78;5014776;28;20508;-76
2023/01/19 09:00:32;;;;;;;22.23;3.55;;;;;;;2.44;100.00;100601.53;5027208;28;20389;-75
2023/01/19 09:02:58;;;;;;;22.98;4.22;;;;;;;2.58;100.00;100600.16;5015014;28;20660;-75
2023/01/19 09:05:23;;;;;;;22.98;3.72;;;;;;;2.61;100.00;100597.16;5023503;28;20079;-75
2023/01/19 09:07:50;;;;;;;13.02;2.25;;;;;;;2.59;100.00;100604.56;5047601;28;20025;-75
2023/01/19 09:10:17;;;;;;;13.65;2.47;;;;;;;2.64;100.00;100615.78;5037093;28;20044;-75
2023/01/19 09:12:43;;;;;;;18.38;2.90;;;;;;;2.71;100.00;100606.03;5045730;28;20056;-75
2023/01/19 09:15:11;;;;;;;22.00;3.03;;;;;;;2.73;100.00;100609.47;5043837;28;20036;-75
2023/01/19 09:17:36;;;;;;;20.15;4.03;;;;;;;2.75;100.00;100612.84;5037019;28;20064;-76
2023/01/19 09:20:03;;;;;;;15.98;2.85;;;;;;;2.81;100.00;100617.63;5042948;28;20048;-75
2023/01/19 09:22:28;;;;;;;25.30;3.30;;;;;;;2.78;100.00;100607.97;5036405;28;20031;-75
2023/01/19 09:24:54;;;;;;;28.65;3.58;;;;;;;2.88;100.00;100624.16;5041364;28;20037;-76
2023/01/19 09:27:19;;;;;;;11.25;2.90;;;;;;;2.91;100.00;100626.53;5038605;28;20025;-75
2023/01/19 09:29:51;;;;;;;20.23;2.75;;;;;;;2.96;100.00;100621.50;5041012;28;20040;-76
2023/01/19 09:32:18;;;;;;;9.30;2.90;;;;;;;2.90;100.00;100624.84;5043516;28;20024;-76
2023/01/19 09:34:43;;;;;;;16.00;2.75;;;;;;;2.85;100.00;100629.84;5038726;28;20026;-75
2023/01/19 09:37:09;;;;;;;16.88;3.22;;;;;;;2.92;100.00;100625.53;5038331;28;20197;-76
2023/01/19 09:39:35;;;;;;;13.52;2.90;;;;;;;2.96;100.00;100626.94;5044865;28;20543;-75
2023/01/19 09:42:13;;;;;;;15.82;4.32;;;;;;;2.95;100.00;100623.34;5044314;28;20459;-75
2023/01/19 09:44:40;;;;;;;15.48;2.97;;;;;;;2.97;100.00;100634.88;5040781;28;20029;-75
2023/01/19 09:47:14;;;;;;;21.83;3.25;;;;;;;3.21;100.00;100629.69;5037501;28;20035;-76
2023/01/19 09:49:44;;;;;;;17.77;2.70;;;;;;;3.20;100.00;100632.56;5040431;28;20025;-75
2023/01/19 09:52:12;;;;;;;15.43;2.22;;;;;;;3.28;98.66;100640.75;5043596;28;20159;-75
2023/01/19 09:54:46;;;;;;;20.60;2.70;;;;;;;3.34;98.29;100649.09;5041416;28;20507;-75
2023/01/19 09:57:13;;;;;;;7.75;1.95;;;;;;;3.44;97.44;100654.41;5041025;28;20029;-77
2023/01/19 09:59:42;;;;;;;11.45;2.20;;;;;;;3.41;98.21;100650.16;5035846;28;20026;-76
2023/01/19 10:02:29;;;;;;;16.38;2.33;;;;;;;3.48;97.01;100651.22;5039417;28;20032;-76
2023/01/19 10:05:23;;;;;;;7.57;2.42;;;;;;;3.61;96.04;100657.09;5043406;28;20037;-75
2023/01/19 10:07:57;;;;;;;9.30;2.22;;;;;;;3.66;94.57;100656.63;5040590;28;20077;-75
2023/01/19 10:10:28;;;;;;;8.05;2.10;;;;;;;3.74;94.40;100662.13;5044144;28;20029;-75
2023/01/19 10:13:28;;;;;;;8.40;2.70;;;;;;;3.80;93.89;100659.59;5041794;28;20067;-75
2023/01/19 10:16:09;;;;;;;9.23;2.08;;;;;;;3.81;95.64;100665.88;5042989;28;20044;-75
2023/01/19 10:18:46;;;;;;;9.85;2.17;;;;;;;3.94;94.16;100663.59;5037981;28;20033;-74
2023/01/19 10:21:30;;;;;;;12.75;3.10;;;;;;;3.98;92.23;100660.41;5042448;28;20060;-75
2023/01/19 10:24:17;;;;;;;8.32;1.73;;;;;;;4.13;91.77;100663.38;5039596;28;20508;-75
2023/01/19 10:26:47;;;;;;;12.70;2.08;;;;;;;4.23;91.64;100673.06;5032746;28;20075;-75
2023/01/19 10:29:34;;;;;;;13.48;1.85;;;;;;;4.34;90.43;100666.53;5040957;28;20110;-75
2023/01/19 10:32:16;;;;;;;8.48;1.73;;;;;;;4.42;89.82;100669.28;5041871;28;20021;-75
2023/01/19 10:34:42;;;;;;;10.38;1.80;;;;;;;4.42;89.51;100680.97;5042054;28;20033;-75
2023/01/19 10:37:16;;;;;;;9.30;1.90;;;;;;;4.58;88.74;100681.06;5044495;28;20477;-76
2023/01/19 10:39:44;;;;;;;7.68;1.77;;;;;;;4.65;87.17;100675.84;5042745;28;20025;-75
2023/01/19 10:42:14;;;;;;;13.98;2.13;;;;;;;4.75;86.17;100676.56;5042914;28;20021;-76
2023/01/19 10:44:40;;;;;;;12.00;1.83;;;;;;;4.88;87.58;100671.50;5035660;28;20036;-75
2023/01/19 10:47:15;;;;;;;8.80;2.45;;;;;;;4.88;86.14;100668.78;5043776;28;20526;-76
2023/01/19 10:49:43;;;;;;;4.25;1.33;;;;;;;4.85;84.86;100672.69;5040246;28;20056;-75
2023/01/19 10:52:29;;;;;;;8.93;1.73;;;;;;;4.93;81.46;100669.13;5042203;28;20033;-75
2023/01/19 10:54:56;;;;;;;9.30;1.58;;;;;;;4.93;81.57;100667.28;5039468;28;20099;-76
2023/01/19 10:57:30;;;;;;;5.93;1.42;;;;;;;4.93;82.57;100670.00;5041405;28;20025;-76
2023/01/19 10:59:55;;;;;;;12.18;1.85;;;;;;;4.74;79.54;100662.13;5038356;28;20037;-75
2023/01/19 11:02:30;;;;;;;8.57;1.35;;;;;;;4.53;80.45;100671.69;5041709;28;20033;-75
2023/01/19 11:04:57;;;;;;;8.85;1.65;;;;;;;4.40;79.33;100665.88;5038518;28;20400;-75
2023/01/19 11:07:25;;;;;;;6.00;1.30;;;;;;;4.31;80.96;100664.13;5043998;28;20067;-75
2023/01/19 11:10:22;;;;;;;6.68;1.45;;;;;;;4.50;80.96;100672.88;5046837;28;20025;-76
2023/01/19 11:13:00;;;;;;;3.25;1.63;;;;;;;4.70;79.62;100662.63;5043669;28;20029;-75
2023/01/19 11:15:34;;;;;;;;;;;;;;;4.86;80.06;100677.09;5041388;28;20036;-75
2023/01/19 11:18:04;;;;;;;6.22;1.63;;;;;;;4.92;79.99;100672.88;5048734;28;20327;-75
2023/01/19 11:20:45;;;;;;;9.38;1.70;;;;;;;5.08;77.82;100673.75;5049052;28;20495;-76
2023/01/19 11:23:13;;;;;;;8.60;1.40;;;;;;;5.00;75.13;100675.59;5044504;28;20021;-76
2023/01/19 11:25:39;;;;;;;7.38;1.67;;;;;;;4.82;74.44;100673.00;5046467;28;20060;-76
2023/01/19 11:28:12;;;;;;;6.55;1.58;;;;;;;4.62;76.30;100670.72;5045456;28;20157;-75
2023/01/19 11:31:15;;;;;;;12.00;2.55;;;;;;;4.50;78.71;100677.47;5044787;28;20029;-75
2023/01/19 11:33:46;;;;;;;10.18;1.40;;;;;;;4.39;77.16;100672.31;5042823;28;20048;-75
2023/01/19 11:36:26;;;;;;;6.82;1.58;;;;;;;4.24;78.58;100676.66;5041418;28;20020;-76
2023/01/19 11:38:55;;;;;;;7.72;1.77;;;;;;;4.14;79.27;100674.06;5036718;28;20053;-75